createdAt,value
2022-10-01T00:00:12.470Z,99611.69
2022-10-01T00:02:15.564Z,99609.06
2022-10-01T00:04:17.639Z,99615.38
2022-10-01T00:06:21.518Z,99630.59
2022-10-01T00:08:23.605Z,99629.53
2022-10-01T00:10:25.757Z,99633.13
2022-10-01T00:12:30.289Z,99628.66
2022-10-01T00:14:32.918Z,99630.06
2022-10-01T00:16:34.915Z,99620.25
2022-10-01T00:18:41.462Z,99624.06
2022-10-01T00:20:43.772Z,99615.56
2022-10-01T00:22:47.540Z,99612.63
2022-10-01T00:24:49.688Z,99618.63
2022-10-01T00:26:51.944Z,99622.44
2022-10-01T00:28:59.830Z,99616.13
2022-10-01T00:31:02.025Z,99620.38
2022-10-01T00:33:06.547Z,99614.94
2022-10-01T00:35:10.140Z,99611.69
2022-10-01T00:37:12.584Z,99623.66
2022-10-01T00:39:14.956Z,99625.41
2022-10-01T00:41:18.854Z,99634.97
2022-10-01T00:43:26.429Z,99643.25
2022-10-01T00:45:29.652Z,99639.22
2022-10-01T00:47:50.422Z,99605.53
2022-10-01T00:49:59.309Z,99561.22
2022-10-01T00:52:06.525Z,99563.94
2022-10-01T00:54:26.461Z,99577.13
2022-10-01T00:56:29.201Z,99586.47
2022-10-01T00:58:31.545Z,99576.69
2022-10-01T01:00:35.687Z,99566.88
2022-10-01T01:02:37.881Z,99571.47
2022-10-01T01:04:44.994Z,99572.56
2022-10-01T01:06:56.009Z,99564.94
2022-10-01T01:08:58.466Z,99570.16
2022-10-01T01:11:14.286Z,99568.44
2022-10-01T01:13:16.446Z,99571.16
2022-10-01T01:15:37.081Z,99566.56
2022-10-01T01:17:39.820Z,99556.16
2022-10-01T01:20:00.376Z,99558.19
2022-10-01T01:22:06.661Z,99559.41
2022-10-01T01:24:39.753Z,99551.13
2022-10-01T01:27:00.387Z,99550.94
2022-10-01T01:29:24.064Z,99545.38
2022-10-01T01:31:36.609Z,99536.88
2022-10-01T01:33:43.739Z,99539.84
2022-10-01T01:36:01.365Z,99541.16
2022-10-01T01:38:09.547Z,99536.56
2022-10-01T01:40:15.380Z,99545.84
2022-10-01T01:42:23.120Z,99535.59
2022-10-01T01:44:29.941Z,99537.22
2022-10-01T01:46:36.179Z,99541.03
2022-10-01T01:48:41.312Z,99536.81
2022-10-01T01:51:15.595Z,99538.63
2022-10-01T01:53:18.568Z,99533.84
2022-10-01T01:55:26.541Z,99521.75
2022-10-01T01:57:28.850Z,99510.88
2022-10-01T01:59:35.345Z,99507.94
2022-10-01T02:01:40.685Z,99508.81
2022-10-01T02:03:45.592Z,99508.28
2022-10-01T02:06:13.947Z,99508.50
2022-10-01T02:08:41.219Z,99500.88
2022-10-01T02:11:15.423Z,99505.97
2022-10-01T02:13:45.183Z,99505.56
2022-10-01T02:16:04.646Z,99512.41
2022-10-01T02:18:12.068Z,99510.13
2022-10-01T02:20:21.294Z,99509.25
2022-10-01T02:22:40.366Z,99513.59
2022-10-01T02:24:57.225Z,99508.94
2022-10-01T02:27:02.374Z,99516.66
2022-10-01T02:29:10.139Z,99523.75
2022-10-01T02:31:14.855Z,99507.97
2022-10-01T02:33:25.764Z,99515.44
2022-10-01T02:35:36.053Z,99520.66
2022-10-01T02:37:42.644Z,99507.53
2022-10-01T02:39:47.503Z,99506.97
2022-10-01T02:41:52.289Z,99510.00
2022-10-01T02:44:01.801Z,99512.63
2022-10-01T02:46:15.249Z,99527.31
2022-10-01T02:48:18.490Z,99536.34
2022-10-01T02:50:23.105Z,99519.38
2022-10-01T02:52:31.559Z,99524.16
2022-10-01T02:54:45.237Z,99524.16
2022-10-01T02:57:06.170Z,99532.22
2022-10-01T02:59:09.284Z,99525.59
2022-10-01T03:01:11.434Z,99530.13
2022-10-01T03:03:13.585Z,99525.38
2022-10-01T03:05:16.780Z,99523.97
2022-10-01T03:07:21.554Z,99530.91
2022-10-01T03:09:23.527Z,99532.00
2022-10-01T03:11:25.800Z,99527.00
2022-10-01T03:13:28.081Z,99528.16
2022-10-01T03:15:30.780Z,99521.22
2022-10-01T03:17:35.429Z,99521.00
2022-10-01T03:19:37.465Z,99523.50
2022-10-01T03:21:40.052Z,99516.44
2022-10-01T03:23:42.318Z,99515.56
2022-10-01T03:25:44.287Z,99512.94
2022-10-01T03:27:46.763Z,99523.72
2022-10-01T03:29:49.158Z,99517.59
2022-10-01T03:31:52.172Z,99520.53
2022-10-01T03:33:54.389Z,99515.25
2022-10-01T03:35:58.754Z,99530.00
2022-10-01T03:38:02.984Z,99521.22
2022-10-01T03:40:05.764Z,99530.88
2022-10-01T03:42:07.710Z,99526.63
2022-10-01T03:44:10.135Z,99528.59
2022-10-01T03:46:12.297Z,99526.94
2022-10-01T03:48:14.492Z,99521.59
2022-10-01T03:50:16.720Z,99522.81
2022-10-01T03:52:19.472Z,99520.97
2022-10-01T03:54:21.850Z,99517.94
2022-10-01T03:56:25.872Z,99517.81
2022-10-01T03:58:28.343Z,99512.69
2022-10-01T04:00:30.558Z,99522.47
2022-10-01T04:02:32.765Z,99522.28
2022-10-01T04:04:34.966Z,99520.97
2022-10-01T04:06:36.964Z,99515.41
2022-10-01T04:08:39.769Z,99510.84
2022-10-01T04:10:42.678Z,99520.28
2022-10-01T04:12:44.634Z,99522.91
2022-10-01T04:14:46.848Z,99522.34
2022-10-01T04:16:52.763Z,99522.34
2022-10-01T04:18:54.973Z,99529.41
2022-10-01T04:21:00.158Z,99521.38
2022-10-01T04:23:02.659Z,99527.47
2022-10-01T04:25:05.032Z,99526.69
2022-10-01T04:27:07.029Z,99523.78
2022-10-01T04:29:09.132Z,99527.69
2022-10-01T04:31:26.712Z,99533.78
2022-10-01T04:33:29.063Z,99533.69
2022-10-01T04:35:31.601Z,99537.13
2022-10-01T04:37:33.670Z,99531.72
2022-10-01T04:39:35.710Z,99539.00
2022-10-01T04:41:38.763Z,99538.22
2022-10-01T04:43:41.579Z,99533.00
2022-10-01T04:45:45.020Z,99541.38
2022-10-01T04:47:51.944Z,99538.66
2022-10-01T04:49:54.066Z,99534.56
2022-10-01T04:51:56.145Z,99534.75
2022-10-01T04:53:58.507Z,99543.88
2022-10-01T04:56:00.863Z,99543.78
2022-10-01T04:58:03.225Z,99536.41
2022-10-01T05:00:08.003Z,99545.81
2022-10-01T05:02:10.845Z,99556.50
2022-10-01T05:04:13.202Z,99550.94
2022-10-01T05:06:18.079Z,99555.22
2022-10-01T05:08:23.617Z,99560.44
2022-10-01T05:10:26.382Z,99560.34
2022-10-01T05:12:28.657Z,99549.13
2022-10-01T05:14:31.547Z,99541.66
2022-10-01T05:16:33.584Z,99547.94
2022-10-01T05:18:35.751Z,99543.84
2022-10-01T05:20:38.543Z,99549.28
2022-10-01T05:22:41.761Z,99544.16
2022-10-01T05:24:44.030Z,99546.03
2022-10-01T05:26:46.165Z,99545.28
2022-10-01T05:28:48.067Z,99552.44
2022-10-01T05:30:51.247Z,99538.66
2022-10-01T05:33:00.039Z,99535.16
2022-10-01T05:35:06.082Z,99524.59
2022-10-01T05:37:08.562Z,99531.78
2022-10-01T05:39:11.893Z,99529.38
2022-10-01T05:41:13.755Z,99527.00
2022-10-01T05:43:15.895Z,99533.41
2022-10-01T05:45:55.704Z,99528.31
2022-10-01T05:48:03.777Z,99531.38
2022-10-01T05:50:06.321Z,99537.75
2022-10-01T05:52:10.298Z,99538.19
2022-10-01T05:54:13.959Z,99537.38
2022-10-01T05:56:15.875Z,99531.13
2022-10-01T05:58:17.857Z,99544.09
2022-10-01T06:00:21.738Z,99543.63
2022-10-01T06:02:24.177Z,99544.16
2022-10-01T06:04:26.753Z,99554.38
2022-10-01T06:06:29.562Z,99558.59
2022-10-01T06:08:34.643Z,99563.69
2022-10-01T06:10:37.230Z,99570.22
2022-10-01T06:12:39.511Z,99573.13
2022-10-01T06:14:44.670Z,99572.38
2022-10-01T06:16:47.963Z,99560.59
2022-10-01T06:18:57.850Z,99557.63
2022-10-01T06:20:59.877Z,99562.09
2022-10-01T06:23:10.299Z,99552.44
2022-10-01T06:25:18.895Z,99548.09
2022-10-01T06:27:21.504Z,99553.31
2022-10-01T06:29:23.420Z,99535.50
2022-10-01T06:31:28.099Z,99542.47
2022-10-01T06:33:31.730Z,99536.66
2022-10-01T06:35:43.385Z,99542.38
2022-10-01T06:37:45.215Z,99533.72
2022-10-01T06:39:47.162Z,99545.03
2022-10-01T06:41:49.033Z,99541.81
2022-10-01T06:43:51.463Z,99550.03
2022-10-01T06:45:53.664Z,99542.63
2022-10-01T06:48:03.148Z,99547.97
2022-10-01T06:50:05.547Z,99539.53
2022-10-01T06:52:27.999Z,99544.25
2022-10-01T06:54:30.017Z,99537.06
2022-10-01T06:56:32.407Z,99541.03
2022-10-01T06:58:34.588Z,99544.25
2022-10-01T07:00:39.196Z,99541.84
2022-10-01T07:02:41.886Z,99544.09
2022-10-01T07:04:43.966Z,99541.84
2022-10-01T07:06:45.773Z,99543.50
2022-10-01T07:08:51.441Z,99544.22
2022-10-01T07:10:53.603Z,99548.44
2022-10-01T07:12:55.663Z,99549.44
2022-10-01T07:14:57.679Z,99552.03
2022-10-01T07:17:02.191Z,99550.16
2022-10-01T07:19:04.353Z,99552.31
2022-10-01T07:21:06.882Z,99551.06
2022-10-01T07:23:12.212Z,99550.31
2022-10-01T07:25:15.191Z,99554.78
2022-10-01T07:27:17.776Z,99546.56
2022-10-01T07:29:19.897Z,99553.16
2022-10-01T07:31:22.384Z,99550.16
2022-10-01T07:33:27.692Z,99549.31
2022-10-01T07:35:29.805Z,99552.91
2022-10-01T07:37:32.215Z,99552.78
2022-10-01T07:39:35.004Z,99546.31
2022-10-01T07:41:37.405Z,99557.38
2022-10-01T07:43:41.849Z,99559.50
2022-10-01T07:45:47.420Z,99550.91
2022-10-01T07:48:08.372Z,99545.78
2022-10-01T07:50:10.498Z,99548.72
2022-10-01T07:52:13.495Z,99554.81
2022-10-01T07:54:16.393Z,99549.69
2022-10-01T07:56:22.194Z,99551.06
2022-10-01T07:58:24.641Z,99545.03
2022-10-01T08:00:30.808Z,99533.72
2022-10-01T08:02:32.991Z,99530.31
2022-10-01T08:04:53.474Z,99535.13
2022-10-01T08:06:55.522Z,99538.56
2022-10-01T08:08:57.559Z,99537.03
2022-10-01T08:11:06.104Z,99522.78
2022-10-01T08:13:16.567Z,99524.59
2022-10-01T08:15:19.198Z,99517.56
2022-10-01T08:17:21.248Z,99513.56
2022-10-01T08:19:23.727Z,99514.16
2022-10-01T08:21:26.557Z,99515.47
2022-10-01T08:23:30.121Z,99526.03
2022-10-01T08:25:35.911Z,99516.25
2022-10-01T08:27:37.977Z,99518.59
2022-10-01T08:29:43.503Z,99513.59
2022-10-01T08:31:45.534Z,99518.50
2022-10-01T08:33:47.686Z,99519.09
2022-10-01T08:35:49.965Z,99517.94
2022-10-01T08:37:52.433Z,99523.16
2022-10-01T08:39:55.426Z,99519.97
2022-10-01T08:42:52.781Z,99505.41
2022-10-01T08:44:55.126Z,99498.38
2022-10-01T08:47:08.511Z,99507.19
2022-10-01T08:49:22.671Z,99497.53
2022-10-01T08:51:43.443Z,99500.56
2022-10-01T08:54:32.671Z,99497.97
2022-10-01T08:56:39.080Z,99496.69
2022-10-01T08:58:55.030Z,99491.78
2022-10-01T09:00:57.242Z,99499.28
2022-10-01T09:03:05.610Z,99486.88
2022-10-01T09:05:20.774Z,99490.41
2022-10-01T09:07:47.384Z,99473.09
2022-10-01T09:10:01.286Z,99478.41
2022-10-01T09:12:21.055Z,99480.84
2022-10-01T09:15:07.651Z,99475.22
2022-10-01T09:17:24.740Z,99485.03
2022-10-01T09:19:47.240Z,99478.84
2022-10-01T09:22:05.555Z,99485.34
2022-10-01T09:24:22.888Z,99478.69
2022-10-01T09:26:25.844Z,99477.53
2022-10-01T09:28:34.876Z,99477.81
2022-10-01T09:30:40.859Z,99491.69
2022-10-01T09:32:53.870Z,99489.63
2022-10-01T09:34:57.929Z,99489.06
2022-10-01T09:37:24.188Z,99479.81
2022-10-01T09:39:39.741Z,99479.50
2022-10-01T09:41:41.756Z,99472.00
2022-10-01T09:43:44.259Z,99475.47
2022-10-01T09:46:07.115Z,99480.94
2022-10-01T09:48:35.375Z,99482.13
2022-10-01T09:50:44.279Z,99476.31
2022-10-01T09:52:59.321Z,99484.44
2022-10-01T09:55:22.967Z,99476.75
2022-10-01T09:58:11.032Z,99479.50
2022-10-01T10:00:21.969Z,99479.34
2022-10-01T10:02:32.460Z,99483.69
2022-10-01T10:04:44.019Z,99482.38
2022-10-01T10:06:47.433Z,99475.59
2022-10-01T10:08:50.020Z,99476.00
2022-10-01T10:11:01.061Z,99480.03
2022-10-01T10:13:26.579Z,99483.91
2022-10-01T10:15:33.388Z,99476.09
2022-10-01T10:17:38.315Z,99480.56
2022-10-01T10:19:41.434Z,99475.66
2022-10-01T10:21:56.802Z,99474.31
2022-10-01T10:24:04.780Z,99468.06
2022-10-01T10:26:07.621Z,99469.81
2022-10-01T10:28:23.976Z,99468.06
2022-10-01T10:30:26.557Z,99464.84
2022-10-01T10:32:28.891Z,99456.16
2022-10-01T10:34:47.081Z,99456.16
2022-10-01T10:36:50.039Z,99457.56
2022-10-01T10:38:53.855Z,99458.88
2022-10-01T10:40:57.734Z,99449.28
2022-10-01T10:43:00.244Z,99441.00
2022-10-01T10:45:04.454Z,99436.31
2022-10-01T10:47:11.859Z,99439.44
2022-10-01T10:49:40.015Z,99421.78
2022-10-01T10:51:56.391Z,99417.22
2022-10-01T10:54:01.364Z,99408.34
2022-10-01T10:56:06.626Z,99414.16
2022-10-01T10:58:12.543Z,99412.88
2022-10-01T11:00:18.010Z,99410.84
2022-10-01T11:02:24.369Z,99405.53
2022-10-01T11:04:31.497Z,99396.72
2022-10-01T11:06:34.033Z,99392.38
2022-10-01T11:08:36.422Z,99393.88
2022-10-01T11:11:15.889Z,99385.94
2022-10-01T11:13:54.165Z,99376.75
2022-10-01T11:16:26.675Z,99379.97
2022-10-01T11:18:33.147Z,99368.28
2022-10-01T11:20:52.060Z,99365.09
2022-10-01T11:23:34.203Z,99364.91
2022-10-01T11:25:51.868Z,99354.63
2022-10-01T11:28:03.987Z,99351.31
2022-10-01T11:30:14.619Z,99351.00
2022-10-01T11:32:38.634Z,99343.28
2022-10-01T11:35:19.695Z,99337.16
2022-10-01T11:37:48.943Z,99334.09
2022-10-01T11:39:56.706Z,99319.00
2022-10-01T11:42:10.712Z,99316.09
2022-10-01T11:44:35.256Z,99309.81
2022-10-01T11:47:14.066Z,99302.72
2022-10-01T11:49:44.159Z,99301.41
2022-10-01T11:51:54.745Z,99303.97
2022-10-01T11:54:02.846Z,99298.31
2022-10-01T11:56:31.823Z,99297.28
2022-10-01T11:58:52.892Z,99289.03
2022-10-01T12:01:26.647Z,99284.72
2022-10-01T12:03:39.227Z,99296.44
2022-10-01T12:05:43.097Z,99291.06
2022-10-01T12:07:53.340Z,99284.34
2022-10-01T12:09:55.386Z,99282.78
2022-10-01T12:12:35.376Z,99287.81
2022-10-01T12:14:52.823Z,99280.09
2022-10-01T12:17:19.226Z,99273.53
2022-10-01T12:19:37.440Z,99275.50
2022-10-01T12:21:49.681Z,99281.84
2022-10-01T12:24:03.074Z,99283.44
2022-10-01T12:26:23.150Z,99272.97
2022-10-01T12:28:44.952Z,99279.50
2022-10-01T12:31:22.966Z,99273.81
2022-10-01T12:33:26.912Z,99265.75
2022-10-01T12:35:58.541Z,99265.75
2022-10-01T12:38:09.778Z,99259.53
2022-10-01T12:40:28.908Z,99263.84
2022-10-01T12:43:14.615Z,99260.56
2022-10-01T12:45:30.963Z,99257.25
2022-10-01T12:47:44.186Z,99254.50
2022-10-01T12:49:51.872Z,99238.72
2022-10-01T12:52:33.966Z,99241.22
2022-10-01T12:54:41.976Z,99233.00
2022-10-01T12:56:57.521Z,99238.47
2022-10-01T12:59:09.704Z,99236.25
2022-10-01T13:01:46.062Z,99233.78
2022-10-01T13:04:28.533Z,99230.75
2022-10-01T13:07:08.042Z,99221.84
2022-10-01T13:09:39.292Z,99223.25
2022-10-01T13:12:13.364Z,99227.50
2022-10-01T13:14:18.448Z,99230.25
2022-10-01T13:16:39.028Z,99236.91
2022-10-01T13:18:47.330Z,99240.31
2022-10-01T13:20:59.435Z,99232.22
2022-10-01T13:23:18.729Z,99235.69
2022-10-01T13:25:36.599Z,99239.94
2022-10-01T13:27:44.097Z,99236.31
2022-10-01T13:29:52.358Z,99234.44
2022-10-01T13:32:22.082Z,99226.97
2022-10-01T13:34:35.071Z,99228.28
2022-10-01T13:36:37.588Z,99224.16
2022-10-01T13:38:42.943Z,99228.22
2022-10-01T13:40:45.519Z,99224.22
2022-10-01T13:42:49.346Z,99223.84
2022-10-01T13:45:05.777Z,99247.00
2022-10-01T13:47:10.129Z,99239.94
2022-10-01T13:49:26.750Z,99231.28
2022-10-01T13:51:37.662Z,99226.59
2022-10-01T13:53:42.888Z,99223.84
2022-10-01T13:55:47.989Z,99235.00
2022-10-01T13:57:50.065Z,99227.38
2022-10-01T14:00:01.256Z,99221.25
2022-10-01T14:02:33.901Z,99220.03
2022-10-01T14:04:43.365Z,99216.56
2022-10-01T14:06:55.223Z,99209.31
2022-10-01T14:09:17.857Z,99204.91
2022-10-01T14:11:45.856Z,99200.59
2022-10-01T14:14:09.986Z,99211.88
2022-10-01T14:16:13.772Z,99214.09
2022-10-01T14:18:19.575Z,99219.44
2022-10-01T14:20:28.978Z,99214.59
2022-10-01T14:22:53.833Z,99205.22
2022-10-01T14:25:01.706Z,99201.00
2022-10-01T14:27:27.818Z,99202.25
2022-10-01T14:29:59.957Z,99217.81
2022-10-01T14:32:15.369Z,99209.75
2022-10-01T14:34:56.265Z,99201.84
2022-10-01T14:36:58.587Z,99195.72
2022-10-01T14:39:21.864Z,99200.81
2022-10-01T14:41:25.048Z,99192.56
2022-10-01T14:43:29.487Z,99198.06
2022-10-01T14:45:31.688Z,99202.28
2022-10-01T14:50:58.743Z,99205.22
2022-10-01T14:53:01.106Z,99207.69
2022-10-01T14:55:12.021Z,99193.56
2022-10-01T14:57:30.816Z,99171.69
2022-10-01T14:59:39.404Z,99167.22
2022-10-01T15:01:54.707Z,99152.84
2022-10-01T15:03:59.468Z,99137.81
2022-10-01T15:06:04.021Z,99129.75
2022-10-01T15:08:16.718Z,99116.81
2022-10-01T15:10:20.849Z,99118.66
2022-10-01T15:12:24.013Z,99116.63
2022-10-01T15:14:26.189Z,99120.41
2022-10-01T15:16:29.433Z,99108.88
2022-10-01T15:18:32.204Z,99103.25
2022-10-01T15:20:35.360Z,99094.47
2022-10-01T15:22:40.609Z,99098.84
2022-10-01T15:24:49.240Z,99077.38
2022-10-01T15:26:55.856Z,99076.34
2022-10-01T15:29:13.667Z,99070.47
2022-10-01T15:31:17.127Z,99058.81
2022-10-01T15:33:29.406Z,99053.16
2022-10-01T15:43:49.817Z,99035.03
2022-10-01T15:46:25.606Z,99034.59
2022-10-01T15:48:30.202Z,99041.63
2022-10-01T15:50:36.731Z,99045.38
2022-10-01T15:52:51.656Z,99050.56
2022-10-01T15:55:15.595Z,99059.91
2022-10-01T15:57:23.269Z,99065.78
2022-10-01T15:59:25.958Z,99071.56
2022-10-01T16:01:38.473Z,99072.13
2022-10-01T16:03:55.232Z,99080.44
2022-10-01T16:06:02.332Z,99093.25
2022-10-01T16:08:04.587Z,99097.13
2022-10-01T16:10:31.503Z,99096.09
2022-10-01T16:12:36.624Z,99091.75
2022-10-01T16:14:56.925Z,99085.31
2022-10-01T16:17:17.422Z,99068.47
2022-10-01T16:19:30.654Z,99072.47
2022-10-01T16:21:40.578Z,99072.59
2022-10-01T16:23:53.231Z,99077.53
2022-10-01T16:25:55.265Z,99087.16
2022-10-01T16:28:04.027Z,99092.34
2022-10-01T16:30:32.210Z,99097.34
2022-10-01T16:32:34.226Z,99085.31
2022-10-01T16:34:36.835Z,99082.00
2022-10-01T16:36:39.062Z,99077.84
2022-10-01T16:38:40.953Z,99073.69
2022-10-01T16:40:45.294Z,99068.50
2022-10-01T16:42:50.775Z,99059.31
2022-10-01T16:44:52.999Z,99052.25
2022-10-01T16:46:56.401Z,99025.19
2022-10-01T16:48:58.395Z,99023.75
2022-10-01T16:51:00.536Z,99022.28
2022-10-01T16:53:04.407Z,99017.69
2022-10-01T16:55:24.171Z,99018.09
2022-10-01T16:57:26.754Z,99019.53
2022-10-01T16:59:29.035Z,99020.06
2022-10-01T17:01:31.303Z,99021.09
2022-10-01T17:03:33.537Z,99019.50
2022-10-01T17:05:37.299Z,98991.59
2022-10-01T17:07:39.300Z,98984.53
2022-10-01T17:09:41.502Z,98968.44
2022-10-01T17:11:43.683Z,98950.13
2022-10-01T17:13:45.797Z,98968.81
2022-10-01T17:15:48.623Z,98978.13
2022-10-01T17:17:51.889Z,98990.94
2022-10-01T17:19:53.966Z,99008.38
2022-10-01T17:21:56.465Z,99014.25
2022-10-01T17:23:58.607Z,99019.56
2022-10-01T17:26:00.539Z,99038.53
2022-10-01T17:28:06.845Z,99056.47
2022-10-01T17:30:09.658Z,99061.09
2022-10-01T17:32:12.483Z,99061.09
2022-10-01T17:34:14.551Z,99060.81
2022-10-01T17:36:16.990Z,99054.06
2022-10-01T17:38:19.562Z,99052.75
2022-10-01T17:40:22.034Z,99055.63
2022-10-01T17:42:24.087Z,99049.16
2022-10-01T17:44:26.969Z,99049.72
2022-10-01T17:46:31.060Z,99061.66
2022-10-01T17:48:33.115Z,99049.72
2022-10-01T17:50:35.691Z,99051.56
2022-10-01T17:52:39.857Z,99038.34
2022-10-01T17:54:43.793Z,99048.97
2022-10-01T17:56:46.138Z,99051.69
2022-10-01T17:58:48.271Z,99055.03
2022-10-01T18:00:50.409Z,99054.75
2022-10-01T18:02:52.650Z,99045.16
2022-10-01T18:04:54.711Z,99051.63
2022-10-01T18:06:59.782Z,99053.47
2022-10-01T18:09:01.882Z,99059.38
2022-10-01T18:11:09.504Z,99065.97
2022-10-01T18:13:11.713Z,99061.38
2022-10-01T18:15:14.236Z,99057.78
2022-10-01T18:17:16.385Z,99053.44
2022-10-01T18:21:43.301Z,99052.56
2022-10-01T18:23:45.598Z,99055.03
2022-10-01T18:25:49.908Z,99064.09
2022-10-01T18:27:52.048Z,99072.13
2022-10-01T18:29:54.210Z,99074.47
2022-10-01T18:32:21.668Z,99072.88
2022-10-01T18:34:46.654Z,99073.03
2022-10-01T18:36:58.604Z,99080.47
2022-10-01T18:39:19.427Z,99081.22
2022-10-01T18:41:35.389Z,99080.59
2022-10-01T18:43:40.968Z,99081.34
2022-10-01T18:46:01.901Z,99083.34
2022-10-01T18:48:23.270Z,99070.13
2022-10-01T18:50:37.432Z,99076.84
2022-10-01T18:52:48.591Z,99071.94
2022-10-01T18:55:21.127Z,99081.72
2022-10-01T18:57:51.678Z,99072.31
2022-10-01T19:00:08.957Z,99061.59
2022-10-01T19:02:32.679Z,99064.13
2022-10-01T19:05:01.583Z,99061.00
2022-10-01T19:07:38.821Z,99062.16
2022-10-01T19:10:23.211Z,99061.13
2022-10-01T19:12:43.656Z,99061.47
2022-10-01T19:15:03.719Z,99060.72
2022-10-01T19:17:44.157Z,99055.56
2022-10-01T19:19:58.237Z,99049.53
2022-10-01T19:22:26.521Z,99060.53
2022-10-01T19:24:43.300Z,99064.41
2022-10-01T19:26:58.012Z,99055.22
2022-10-01T19:29:30.160Z,99054.88
2022-10-01T19:31:35.178Z,99056.81
2022-10-01T19:33:56.101Z,99050.88
2022-10-01T19:35:59.754Z,99054.19
2022-10-01T19:38:13.748Z,99051.63
2022-10-01T19:40:25.651Z,99051.63
2022-10-01T19:42:34.012Z,99060.22
2022-10-01T19:45:01.342Z,99053.22
2022-10-01T19:47:23.685Z,99038.78
2022-10-01T19:49:34.557Z,99048.16
2022-10-01T19:51:46.208Z,99048.44
2022-10-01T19:53:56.521Z,99055.34
2022-10-01T19:56:02.249Z,99044.56
2022-10-01T19:58:16.547Z,99045.81
2022-10-01T20:00:21.894Z,99038.97
2022-10-01T20:02:32.705Z,99046.69
2022-10-01T20:04:48.650Z,99040.53
2022-10-01T20:06:57.251Z,99048.84
2022-10-01T20:09:02.324Z,99054.28
2022-10-01T20:11:18.826Z,99048.94
2022-10-01T20:13:38.317Z,99037.13
2022-10-01T20:15:49.609Z,99043.47
2022-10-01T20:18:13.209Z,99047.06
2022-10-01T20:20:31.929Z,99049.50
2022-10-01T20:22:51.584Z,99057.97
2022-10-01T20:24:56.710Z,99054.38
2022-10-01T20:27:37.095Z,99054.00
2022-10-01T20:30:02.002Z,99056.25
2022-10-01T20:32:33.722Z,99054.00
2022-10-01T20:35:13.409Z,99057.97
2022-10-01T20:37:35.190Z,99051.66
2022-10-01T20:39:46.181Z,99048.81
2022-10-01T20:41:53.348Z,99047.69
2022-10-01T20:44:02.436Z,99051.81
2022-10-01T20:46:12.438Z,99054.41
2022-10-01T20:48:22.314Z,99051.09
2022-10-01T20:50:47.241Z,99044.88
2022-10-01T20:53:30.828Z,99048.00
2022-10-01T20:55:39.343Z,99047.03
2022-10-01T20:58:06.717Z,99062.94
2022-10-01T21:00:28.843Z,99065.50
2022-10-01T21:02:39.880Z,99066.97
2022-10-01T21:04:56.637Z,99077.44
2022-10-01T21:07:25.011Z,99078.16
2022-10-01T21:09:41.666Z,99079.16
2022-10-01T21:11:45.184Z,99073.69
2022-10-01T21:14:16.831Z,99075.09
2022-10-01T21:16:50.590Z,99072.63
2022-10-01T21:19:07.782Z,99078.47
2022-10-01T21:21:38.429Z,99080.53
2022-10-01T21:24:11.699Z,99079.81
2022-10-01T21:26:38.483Z,99086.25
2022-10-01T21:28:43.539Z,99091.56
2022-10-01T21:31:14.452Z,99078.94
2022-10-01T21:33:23.558Z,99072.34
2022-10-01T21:35:51.298Z,99077.94
2022-10-01T21:38:14.205Z,99072.47
2022-10-01T21:40:54.675Z,99079.69
2022-10-01T21:42:59.899Z,99075.69
2022-10-01T21:45:37.982Z,99070.97
2022-10-01T21:47:52.177Z,99071.59
2022-10-01T21:50:03.409Z,99066.13
2022-10-01T21:52:31.218Z,99062.66
2022-10-01T21:54:45.151Z,99059.78
2022-10-01T21:56:55.128Z,99063.41
2022-10-01T21:59:21.222Z,99067.38
2022-10-01T22:01:35.812Z,99066.38
2022-10-01T22:03:55.357Z,99066.50
2022-10-01T22:06:13.379Z,99076.69
2022-10-01T22:08:48.684Z,99080.41
2022-10-01T22:10:59.283Z,99082.69
2022-10-01T22:13:06.806Z,99079.22
2022-10-01T22:15:28.761Z,99073.88
2022-10-01T22:17:34.265Z,99073.75
2022-10-01T22:19:43.125Z,99075.19
2022-10-01T22:21:48.745Z,99072.75
2022-10-01T22:23:59.267Z,99075.75
2022-10-01T22:26:06.408Z,99077.59
2022-10-01T22:28:18.931Z,99079.97
2022-10-01T22:30:25.308Z,99081.84
2022-10-01T22:32:33.421Z,99094.63
2022-10-01T22:34:40.698Z,99097.34
2022-10-01T22:36:49.285Z,99092.88
2022-10-01T22:38:55.115Z,99087.69
2022-10-01T22:41:10.367Z,99097.84
2022-10-01T22:43:13.948Z,99096.88
2022-10-01T22:45:17.896Z,99098.84
2022-10-01T22:47:59.190Z,99112.75
2022-10-01T22:50:33.179Z,99114.22
2022-10-01T22:52:48.148Z,99117.69
2022-10-01T22:55:05.541Z,99119.81
2022-10-01T22:57:37.294Z,99120.94
2022-10-01T22:59:51.217Z,99124.25
2022-10-01T23:02:05.266Z,99123.41
2022-10-01T23:04:36.448Z,99121.91
2022-10-01T23:06:50.686Z,99117.94
2022-10-01T23:09:08.107Z,99126.25
2022-10-01T23:11:57.795Z,99122.91
2022-10-01T23:14:30.525Z,99127.78
2022-10-01T23:16:57.847Z,99131.22
2022-10-01T23:19:12.186Z,99130.63
2022-10-01T23:21:30.262Z,99142.66
2022-10-01T23:24:13.987Z,99144.03
2022-10-01T23:26:16.413Z,99142.91
2022-10-01T23:28:39.279Z,99152.19
2022-10-01T23:31:05.145Z,99150.59
2022-10-01T23:33:49.985Z,99158.78
2022-10-01T23:35:54.839Z,99155.03
2022-10-01T23:37:59.599Z,99169.53
2022-10-01T23:40:09.302Z,99171.41
2022-10-01T23:42:35.278Z,99179.72
2022-10-01T23:44:53.130Z,99174.53
2022-10-01T23:46:59.050Z,99179.13
2022-10-01T23:49:23.039Z,99171.78
2022-10-01T23:51:29.263Z,99184.16
2022-10-01T23:53:43.976Z,99175.38
2022-10-01T23:56:10.622Z,99189.97
2022-10-01T23:58:16.058Z,99200.25
